Time;durP1;ratioP1;P1;durP2;ratioP2;P2;SDS_P1;SDS_P2;PMS_P1;PMS_P2;Temp;Humidity;BMP_temperature;BMP_pressure;BME280_temperature;BME280_humidity;BME280_pressure;Samples;Min_cycle;Max_cycle;Signal;HPM_P1;HPM_P2
2022/01/18 00:01:09;;;;;;;40.52;9.25;;;;;;;-0.88;81.47;101927.85;1727509;82;98706;-63
2022/01/18 00:03:35;;;;;;;37.83;9.63;;;;;;;-0.90;81.58;101933.51;1729291;82;25834;-64
2022/01/18 00:06:02;;;;;;;49.53;8.90;;;;;;;-0.93;81.60;101935.64;1723507;82;99023;-64
2022/01/18 00:08:28;;;;;;;49.73;9.60;;;;;;;-0.95;81.65;101941.72;1725476;82;25774;-63
2022/01/18 00:10:53;;;;;;;49.00;10.45;;;;;;;-0.97;81.68;101948.27;1720321;82;27404;-65
2022/01/18 00:18:35;;;;;;;30.65;6.70;;;;;;;-1.01;81.90;101949.04;1723641;82;99452;-65
2022/01/18 00:23:36;;;;;;;39.13;8.65;;;;;;;-1.03;82.02;101947.69;1726066;82;27518;-64
2022/01/18 00:26:06;;;;;;;37.93;6.25;;;;;;;-1.05;82.02;101957.28;1727576;82;98844;-66
2022/01/18 00:28:33;;;;;;;46.25;8.45;;;;;;;-1.05;82.06;101960.34;1717603;82;26034;-65
2022/01/18 00:31:34;;;;;;;35.08;7.62;;;;;;;-1.06;82.09;101969.08;1709719;81;98855;-65
2022/01/18 00:39:05;;;;;;;25.00;5.10;;;;;;;-1.05;82.35;101968.23;1691915;82;26459;-65
2022/01/18 00:41:31;;;;;;;17.23;4.03;;;;;;;-1.03;82.43;101979.27;1667540;84;26021;-63
2022/01/18 00:43:57;;;;;;;33.78;4.65;;;;;;;-0.96;82.63;101975.05;1712261;82;98671;-63
2022/01/18 00:46:23;;;;;;;12.47;2.83;;;;;;;-0.89;82.71;101971.70;1721595;82;26140;-63
2022/01/18 00:49:01;;;;;;;27.65;4.37;;;;;;;-0.83;82.92;101970.54;1725082;81;98971;-63
2022/01/18 00:51:22;;;;;;;24.75;4.53;;;;;;;-0.79;83.03;101971.08;1717717;81;26522;-63
2022/01/18 00:53:49;;;;;;;18.55;3.80;;;;;;;-0.77;82.96;101970.69;1703845;82;25715;-63
2022/01/18 00:56:21;;;;;;;18.15;3.20;;;;;;;-0.77;83.06;101965.85;1720550;81;98570;-63
2022/01/18 00:58:49;;;;;;;24.47;3.83;;;;;;;-0.78;82.99;101977.23;1724357;82;26455;-64
2022/01/18 01:01:18;;;;;;;23.67;3.92;;;;;;;-0.79;83.07;101982.03;1715709;81;99179;-63
2022/01/18 01:03:44;;;;;;;26.23;3.92;;;;;;;-0.79;83.05;101989.93;1723206;82;26336;-63
2022/01/18 01:06:11;;;;;;;30.90;4.37;;;;;;;-0.79;83.12;101987.30;1723732;82;108633;-63
2022/01/18 01:08:37;;;;;;;17.48;3.95;;;;;;;-0.79;83.11;101986.88;1731997;81;27792;-63
2022/01/18 01:11:06;;;;;;;21.02;3.98;;;;;;;-0.78;83.24;101990.39;1725920;80;25694;-63
2022/01/18 01:13:34;;;;;;;22.73;4.55;;;;;;;-0.79;83.20;102002.66;1717541;82;98834;-63
2022/01/18 01:16:28;;;;;;;19.32;3.75;;;;;;;-0.81;83.21;102005.69;1665644;84;25844;-63
2022/01/18 01:19:01;;;;;;;15.98;3.92;;;;;;;-0.80;83.24;102008.78;1715615;82;98899;-63
2022/01/18 01:43:13;;;;;;;21.07;3.37;;;;;;;-0.82;83.63;102007.86;1725495;82;98641;-65
2022/01/18 01:45:27;;;;;;;27.58;5.28;;;;;;;-0.81;83.60;102006.11;1726049;81;25785;-63
2022/01/18 01:47:55;;;;;;;23.80;4.08;;;;;;;-0.82;83.58;102006.54;1720085;82;98917;-64
2022/01/18 01:50:24;;;;;;;16.10;3.45;;;;;;;-0.81;83.59;102003.48;1722695;82;25730;-63
2022/01/18 01:52:55;;;;;;;23.35;4.60;;;;;;;-0.80;83.72;102011.84;1725777;82;27382;-63
2022/01/18 01:55:22;;;;;;;12.65;3.02;;;;;;;-0.80;83.68;102014.05;1725665;82;98761;-63
2022/01/18 01:57:48;;;;;;;21.95;5.33;;;;;;;-0.79;83.66;102005.73;1721783;82;26100;-63
2022/01/18 02:00:18;;;;;;;17.27;4.00;;;;;;;-0.79;83.57;102016.25;1727483;82;98944;-64
2022/01/18 02:02:45;;;;;;;25.02;5.95;;;;;;;-0.77;83.66;102022.45;1726553;81;25816;-63
2022/01/18 02:05:12;;;;;;;17.90;2.95;;;;;;;-0.78;83.68;102023.30;1708468;82;27415;-63
2022/01/18 02:07:38;;;;;;;21.75;3.15;;;;;;;-0.79;83.74;102018.46;1709624;82;98795;-63
2022/01/18 02:10:10;;;;;;;20.80;3.22;;;;;;;-0.78;83.79;102014.09;1706426;83;26437;-63
2022/01/18 02:12:37;;;;;;;14.33;4.17;;;;;;;-0.79;83.82;102003.09;1725508;82;99003;-63
2022/01/18 02:15:13;;;;;;;27.75;3.72;;;;;;;-0.82;83.81;102001.27;1725388;82;25879;-63
2022/01/18 02:23:17;;;;;;;14.68;3.30;;;;;;;-0.88;83.84;102030.50;1724164;82;25722;-63
2022/01/18 02:25:43;;;;;;;15.83;4.42;;;;;;;-0.86;83.97;102016.53;1725731;82;98735;-64
2022/01/18 02:28:10;;;;;;;16.05;3.20;;;;;;;-0.86;83.94;102003.80;1722252;82;25789;-63
2022/01/18 02:30:37;;;;;;;19.90;3.00;;;;;;;-0.89;84.02;102012.93;1716638;82;98908;-63
2022/01/18 02:33:03;;;;;;;20.62;5.33;;;;;;;-0.91;84.11;102014.62;1719645;82;26442;-64
2022/01/18 02:35:35;;;;;;;21.75;3.50;;;;;;;-0.90;84.13;102012.04;1723249;82;30939;-64
2022/01/18 02:38:02;;;;;;;27.73;5.67;;;;;;;-0.93;84.10;102026.86;1718552;82;98685;-63
2022/01/18 02:40:30;;;;;;;20.75;3.25;;;;;;;-0.95;84.14;102020.24;1717792;82;26478;-64
2022/01/18 02:43:46;;;;;;;10.55;2.55;;;;;;;-0.94;84.16;102018.50;1722346;82;98897;-63
2022/01/18 02:45:30;;;;;;;18.00;2.90;;;;;;;-0.97;84.16;102027.63;1715552;82;25830;-64
2022/01/18 02:47:56;;;;;;;13.58;3.15;;;;;;;-0.99;84.23;102024.53;1717387;82;25936;-64
2022/01/18 02:50:22;;;;;;;21.85;3.75;;;;;;;-1.00;84.25;102015.29;1722927;81;99294;-63
2022/01/18 02:52:48;;;;;;;23.65;4.15;;;;;;;-1.02;84.24;102017.88;1721123;82;25775;-63
2022/01/18 02:55:15;;;;;;;23.15;3.12;;;;;;;-1.02;84.26;102022.25;1723867;82;98758;-64
2022/01/18 02:57:55;;;;;;;25.85;3.77;;;;;;;-1.02;84.30;102023.14;1719452;82;25759;-64
2022/01/18 03:00:29;;;;;;;17.85;3.85;;;;;;;-1.01;84.35;102027.55;1711894;82;27669;-63
2022/01/18 03:05:31;;;;;;;25.77;3.42;;;;;;;-1.01;84.61;102031.93;1718853;81;25736;-63
2022/01/18 03:07:57;;;;;;;28.73;3.67;;;;;;;-1.00;84.60;102012.66;1723348;82;98786;-63
2022/01/18 03:10:23;;;;;;;27.85;4.40;;;;;;;-1.01;84.56;102010.88;1726152;82;25308;-63
2022/01/18 03:12:49;;;;;;;27.58;3.62;;;;;;;-1.04;84.61;102016.95;1723263;82;98930;-63
2022/01/18 03:15:15;;;;;;;35.03;4.03;;;;;;;-1.04;84.65;102024.84;1718865;81;27870;-63
2022/01/18 03:17:41;;;;;;;20.20;3.85;;;;;;;-1.03;84.79;102025.73;1725935;82;25870;-64
2022/01/18 03:20:11;;;;;;;14.83;3.55;;;;;;;-1.03;84.89;102038.47;1693485;82;98535;-63
2022/01/18 03:22:35;;;;;;;15.05;3.08;;;;;;;-1.04;84.89;102030.11;1726737;81;25892;-63
2022/01/18 03:25:25;;;;;;;20.35;2.72;;;;;;;-1.07;85.00;102044.50;1710359;82;98851;-63
2022/01/18 03:30:13;;;;;;;17.95;2.42;;;;;;;-1.11;85.02;102047.01;1695052;82;25782;-63
2022/01/18 03:32:41;;;;;;;20.20;3.85;;;;;;;-1.12;85.19;102043.48;1691397;82;99109;-62
2022/01/18 03:35:09;;;;;;;25.43;3.00;;;;;;;-1.13;85.18;102056.60;1725081;82;26158;-62
2022/01/18 03:37:36;;;;;;;21.17;3.55;;;;;;;-1.11;85.28;102055.80;1710423;82;98877;-62
2022/01/18 03:40:05;;;;;;;24.82;3.52;;;;;;;-1.13;85.17;102061.44;1719892;82;26251;-63
2022/01/18 03:45:02;;;;;;;18.70;3.37;;;;;;;-1.12;85.34;102063.22;1729428;82;27390;-63
2022/01/18 03:47:25;;;;;;;15.50;3.83;;;;;;;-1.13;85.46;102065.38;1723232;82;25794;-64
2022/01/18 03:49:51;;;;;;;27.42;5.17;;;;;;;-1.11;85.52;102077.27;1727178;82;98815;-64
2022/01/18 03:52:17;;;;;;;18.80;3.60;;;;;;;-1.12;85.49;102081.64;1729683;81;27006;-63
2022/01/18 03:54:47;;;;;;;17.95;3.83;;;;;;;-1.12;85.48;102093.48;1725224;80;98937;-63
2022/01/18 03:57:10;;;;;;;24.60;3.87;;;;;;;-1.09;85.49;102094.87;1711349;82;27501;-64
2022/01/18 03:59:37;;;;;;;13.90;3.72;;;;;;;-1.08;85.53;102104.55;1701829;82;33247;-63
2022/01/18 04:02:03;;;;;;;27.45;3.95;;;;;;;-1.08;85.53;102083.50;1717604;82;98770;-63
2022/01/18 04:04:29;;;;;;;21.52;3.75;;;;;;;-1.09;85.58;102096.19;1722697;82;26061;-63
2022/01/18 04:06:55;;;;;;;17.87;4.87;;;;;;;-1.09;85.61;102084.77;1725131;82;98892;-63
2022/01/18 04:09:20;;;;;;;19.70;3.75;;;;;;;-1.08;85.75;102084.82;1681497;82;26386;-63
2022/01/18 04:11:47;;;;;;;22.98;3.67;;;;;;;-1.09;85.76;102084.35;1699092;83;33237;-63
2022/01/18 04:14:13;;;;;;;19.57;3.70;;;;;;;-1.10;85.83;102097.05;1694512;82;98764;-63
2022/01/18 04:16:56;;;;;;;22.65;3.83;;;;;;;-1.09;85.91;102098.83;1700245;83;25785;-63
2022/01/18 04:27:22;;;;;;;23.12;4.25;;;;;;;-1.09;86.12;102099.25;1698901;82;25845;-64
2022/01/18 04:29:48;;;;;;;18.55;3.80;;;;;;;-1.07;86.10;102094.92;1699330;82;27826;-64
2022/01/18 04:32:14;;;;;;;29.95;5.25;;;;;;;-1.09;86.08;102096.19;1694197;83;98675;-64
2022/01/18 04:34:40;;;;;;;24.47;4.95;;;;;;;-1.09;86.05;102105.83;1700176;82;27514;-64
2022/01/18 04:37:07;;;;;;;18.42;2.77;;;;;;;-1.10;86.12;102106.25;1694577;82;98888;-64
2022/01/18 04:39:39;;;;;;;17.42;3.90;;;;;;;-1.07;86.26;102108.08;1693914;83;25803;-64
2022/01/18 04:42:19;;;;;;;25.27;3.47;;;;;;;-1.07;86.28;102113.34;1684949;83;26103;-64
2022/01/18 04:49:54;;;;;;;26.07;4.25;;;;;;;-1.07;86.56;102128.70;1695754;82;98730;-63
2022/01/18 04:52:20;;;;;;;17.10;4.50;;;;;;;-1.06;86.50;102146.70;1697072;84;30379;-63
2022/01/18 04:54:56;;;;;;;31.15;4.78;;;;;;;-1.05;86.64;102148.05;1694324;84;98861;-64
2022/01/18 04:59:39;;;;;;;18.15;3.45;;;;;;;-1.09;86.58;102148.81;1684617;82;27419;-64
2022/01/18 05:02:05;;;;;;;28.50;3.85;;;;;;;-1.11;86.61;102149.63;1701618;82;98697;-64
2022/01/18 05:04:31;;;;;;;17.80;4.95;;;;;;;-1.12;86.70;102142.16;1678395;83;30957;-64
2022/01/18 05:07:00;;;;;;;23.45;3.90;;;;;;;-1.13;86.68;102157.47;1674213;82;98833;-63
2022/01/18 05:09:24;;;;;;;21.82;4.10;;;;;;;-1.13;86.73;102164.05;1723164;82;26344;-64
2022/01/18 05:11:58;;;;;;;26.33;4.65;;;;;;;-1.14;86.75;102149.53;1721961;82;27498;-63
2022/01/18 05:14:28;;;;;;;31.48;4.17;;;;;;;-1.16;86.83;102156.06;1724126;81;98850;-64
2022/01/18 05:17:01;;;;;;;32.13;4.60;;;;;;;-1.16;86.79;102163.96;1729960;82;25712;-63
2022/01/18 05:19:27;;;;;;;36.10;4.58;;;;;;;-1.15;86.87;102164.43;1721809;81;98728;-63
2022/01/18 05:24:24;;;;;;;29.42;5.42;;;;;;;-1.19;86.93;102164.30;1726505;82;27414;-63
2022/01/18 05:26:51;;;;;;;27.48;5.00;;;;;;;-1.19;87.01;102161.67;1723257;82;98915;-63
2022/01/18 05:29:17;;;;;;;27.50;6.83;;;;;;;-1.21;87.09;102165.99;1724211;82;25755;-63
2022/01/18 05:31:44;;;;;;;20.90;3.85;;;;;;;-1.23;87.06;102177.78;1723385;81;98800;-63
2022/01/18 05:34:11;;;;;;;38.35;4.55;;;;;;;-1.23;87.17;102185.68;1719170;82;25686;-63
2022/01/18 05:36:37;;;;;;;26.12;4.58;;;;;;;-1.24;87.13;102189.16;1719106;81;98960;-63
2022/01/18 05:39:09;;;;;;;28.27;5.30;;;;;;;-1.26;87.14;102188.22;1723804;82;25802;-63
2022/01/18 05:41:39;;;;;;;24.75;4.75;;;;;;;-1.27;87.18;102194.33;1722500;82;26639;-63
2022/01/18 05:44:05;;;;;;;25.75;5.20;;;;;;;-1.26;87.23;102195.22;1723189;82;98669;-63
2022/01/18 05:46:31;;;;;;;35.23;5.25;;;;;;;-1.29;87.23;102190.76;1718116;81;25775;-63
2022/01/18 05:49:01;;;;;;;29.77;4.45;;;;;;;-1.31;87.31;102192.03;1717161;82;98089;-63
2022/01/18 05:51:29;;;;;;;48.55;6.30;;;;;;;-1.32;87.34;102195.92;1704403;82;52849;-63
2022/01/18 05:53:55;;;;;;;24.32;5.17;;;;;;;-1.33;87.40;102213.45;1720694;81;25778;-63
2022/01/18 05:56:21;;;;;;;29.45;5.15;;;;;;;-1.34;87.42;102203.77;1719148;82;98943;-63
2022/01/18 05:58:49;;;;;;;44.08;6.85;;;;;;;-1.33;87.47;102212.55;1709082;82;25978;-63
2022/01/18 06:01:31;;;;;;;20.75;5.53;;;;;;;-1.34;87.54;102215.61;1718331;82;98685;-63
2022/01/18 06:09:13;;;;;;;31.07;6.92;;;;;;;-1.34;87.55;102222.61;1696600;82;98538;-63
2022/01/18 06:11:40;;;;;;;43.58;6.97;;;;;;;-1.34;87.65;102231.81;1694813;82;26431;-63
2022/01/18 06:14:06;;;;;;;33.85;6.28;;;;;;;-1.31;87.71;102233.22;1693655;82;98752;-63
2022/01/18 06:16:32;;;;;;;25.75;5.15;;;;;;;-1.29;87.79;102235.90;1682823;82;33647;-63
2022/01/18 06:18:58;;;;;;;35.43;6.30;;;;;;;-1.25;87.91;102239.98;1698005;82;98850;-63
2022/01/18 06:21:25;;;;;;;30.95;4.67;;;;;;;-1.22;87.90;102241.39;1701671;82;27871;-63
2022/01/18 06:23:51;;;;;;;34.38;5.97;;;;;;;-1.20;88.06;102240.13;1696244;82;25863;-63
2022/01/18 06:26:17;;;;;;;20.95;5.47;;;;;;;-1.18;88.14;102240.64;1696358;82;98670;-63
2022/01/18 06:28:44;;;;;;;36.95;4.62;;;;;;;-1.15;88.31;102242.47;1700868;82;33377;-62
2022/01/18 06:31:10;;;;;;;28.02;5.80;;;;;;;-1.13;88.38;102249.98;1691348;82;98849;-63
2022/01/18 06:33:36;;;;;;;39.88;5.87;;;;;;;-1.12;88.38;102247.40;1671146;84;25769;-63
2022/01/18 06:36:03;;;;;;;41.00;8.13;;;;;;;-1.10;88.43;102248.76;1646130;85;25827;-63
2022/01/18 06:38:29;;;;;;;40.03;6.30;;;;;;;-1.07;88.52;102252.80;1700469;82;98828;-63
2022/01/18 06:40:55;;;;;;;39.27;8.10;;;;;;;-1.06;88.48;102255.47;1696722;82;25747;-63
2022/01/18 06:43:21;;;;;;;32.50;5.45;;;;;;;-1.04;88.56;102256.41;1702551;82;98929;-63
2022/01/18 06:45:47;;;;;;;14.95;4.53;;;;;;;-1.03;88.57;102260.83;1703682;82;27862;-63
2022/01/18 06:48:14;;;;;;;39.18;5.58;;;;;;;-1.01;88.62;102254.30;1701235;82;25696;-63
2022/01/18 06:50:40;;;;;;;39.48;6.72;;;;;;;-1.00;88.67;102266.18;1702324;82;98742;-63
2022/01/18 06:53:06;;;;;;;29.25;6.10;;;;;;;-0.99;88.77;102273.23;1700287;82;33239;-63
2022/01/18 06:55:32;;;;;;;37.45;6.95;;;;;;;-0.95;88.84;102272.89;1684440;82;98788;-63
2022/01/18 06:58:01;;;;;;;43.30;8.95;;;;;;;-0.93;88.89;102269.89;1703779;83;25774;-63
2022/01/18 07:00:26;;;;;;;46.05;6.97;;;;;;;-0.91;88.85;102281.78;1697718;82;25769;-63
2022/01/18 07:02:52;;;;;;;34.60;8.03;;;;;;;-0.87;88.91;102275.33;1694514;82;98759;-63
2022/01/18 07:05:18;;;;;;;38.23;6.85;;;;;;;-0.85;89.04;102278.90;1669258;82;26129;-63
2022/01/18 07:07:47;;;;;;;31.50;6.72;;;;;;;-0.84;89.02;102278.05;1672140;84;98799;-63
2022/01/18 07:10:13;;;;;;;43.87;8.45;;;;;;;-0.84;89.09;102278.48;1712192;81;25804;-63
2022/01/18 07:12:39;;;;;;;41.42;9.95;;;;;;;-0.81;89.17;102290.41;1721676;81;25737;-63
2022/01/18 07:15:07;;;;;;;44.77;11.38;;;;;;;-0.79;89.20;102294.87;1718512;82;101493;-63
2022/01/18 07:17:35;;;;;;;42.25;11.00;;;;;;;-0.78;89.15;102307.19;1725765;82;26449;-63
2022/01/18 07:20:04;;;;;;;37.08;9.05;;;;;;;-0.77;89.19;102298.44;1719663;81;99107;-63
2022/01/18 07:22:29;;;;;;;37.03;9.58;;;;;;;-0.75;89.34;102297.17;1710518;82;25789;-63
2022/01/18 07:24:58;;;;;;;27.75;10.23;;;;;;;-0.74;89.36;102303.80;1720315;82;99027;-62
2022/01/18 07:27:24;;;;;;;36.98;10.18;;;;;;;-0.73;89.45;102300.74;1725017;81;27862;-63
2022/01/18 07:29:50;;;;;;;37.35;9.28;;;;;;;-0.72;89.42;102295.95;1730573;82;25320;-63
2022/01/18 07:32:17;;;;;;;48.78;10.05;;;;;;;-0.71;89.44;102312.21;1730921;82;98890;-63
2022/01/18 07:34:52;;;;;;;46.88;9.85;;;;;;;-0.71;89.46;102320.11;1723901;82;27808;-64
2022/01/18 07:37:14;;;;;;;47.38;9.35;;;;;;;-0.70;89.47;102335.95;1724928;82;99027;-64
2022/01/18 07:39:40;;;;;;;37.67;10.03;;;;;;;-0.69;89.54;102328.95;1724073;81;27531;-63
2022/01/18 07:42:07;;;;;;;42.55;9.58;;;;;;;-0.71;89.61;102343.80;1721631;81;25859;-64
2022/01/18 07:44:33;;;;;;;36.10;9.40;;;;;;;-0.70;89.77;102342.53;1725351;81;98707;-66
2022/01/18 07:46:59;;;;;;;35.63;10.23;;;;;;;-0.66;89.74;102340.89;1719842;80;25905;-64
2022/01/18 07:49:24;;;;;;;50.52;11.70;;;;;;;-0.64;89.74;102333.03;1724295;80;99301;-64
2022/01/18 07:51:50;;;;;;;46.10;10.72;;;;;;;-0.62;89.79;102345.39;1730178;82;27560;-64
2022/01/18 07:54:17;;;;;;;50.33;11.30;;;;;;;-0.61;89.90;102352.45;1727208;80;25714;-64
2022/01/18 07:56:44;;;;;;;41.55;11.40;;;;;;;-0.61;89.81;102349.81;1726733;81;99428;-64
2022/01/18 07:59:11;;;;;;;39.92;11.63;;;;;;;-0.58;89.85;102358.23;1720422;82;26136;-63
2022/01/18 08:01:38;;;;;;;32.45;10.13;;;;;;;-0.56;89.83;102364.02;1689017;82;98993;-63
2022/01/18 08:04:04;;;;;;;47.00;11.05;;;;;;;-0.52;89.88;102363.67;1710074;82;27394;-63
2022/01/18 08:06:31;;;;;;;54.27;11.10;;;;;;;-0.51;89.91;102359.77;1708836;82;25846;-64
2022/01/18 08:08:57;;;;;;;46.13;11.18;;;;;;;-0.48;89.97;102361.17;1697741;82;98912;-63
2022/01/18 08:11:23;;;;;;;31.77;10.08;;;;;;;-0.47;89.96;102357.70;1718498;82;25769;-64
2022/01/18 08:13:50;;;;;;;39.90;11.50;;;;;;;-0.47;89.97;102364.28;1718002;82;98099;-65
2022/01/18 08:18:59;;;;;;;35.25;11.22;;;;;;;-0.41;89.98;102367.09;1719072;82;99090;-67
2022/01/18 08:21:27;;;;;;;40.38;13.28;;;;;;;-0.36;90.00;102385.24;1714403;82;25822;-66
2022/01/18 08:23:53;;;;;;;42.67;11.08;;;;;;;-0.36;89.97;102393.57;1714779;82;25732;-65
2022/01/18 08:26:20;;;;;;;40.75;11.63;;;;;;;-0.39;90.01;102389.10;1714798;82;98832;-65
2022/01/18 08:28:47;;;;;;;42.60;11.50;;;;;;;-0.43;90.00;102392.50;1719913;82;27484;-66
2022/01/18 08:31:13;;;;;;;38.30;10.65;;;;;;;-0.46;89.96;102389.77;1706959;82;99083;-65
2022/01/18 08:33:39;;;;;;;49.13;13.20;;;;;;;-0.40;89.81;102391.27;1719379;82;25841;-65
2022/01/18 08:36:09;;;;;;;40.92;10.55;;;;;;;-0.42;89.81;102390.33;1712650;82;26003;-67
2022/01/18 08:38:37;;;;;;;52.03;11.38;;;;;;;-0.43;89.78;102390.28;1717256;82;98822;-65
2022/01/18 08:41:04;;;;;;;50.43;12.98;;;;;;;-0.45;89.77;102407.78;1714699;82;27323;-65
2022/01/18 08:43:31;;;;;;;35.20;11.30;;;;;;;-0.50;89.76;102406.33;1717303;82;99004;-66
2022/01/18 08:46:01;;;;;;;34.08;12.18;;;;;;;-0.49;89.83;102400.22;1715820;81;25810;-64
2022/01/18 08:48:27;;;;;;;29.27;9.25;;;;;;;-0.46;89.80;102400.73;1720104;82;27806;-66
2022/01/18 08:51:02;;;;;;;43.08;11.88;;;;;;;-0.49;89.75;102400.22;1717334;82;98813;-65
2022/01/18 08:53:35;;;;;;;41.70;13.40;;;;;;;-0.50;89.72;102408.07;1712058;82;27498;-64
2022/01/18 08:56:02;;;;;;;47.62;13.95;;;;;;;-0.47;89.77;102421.34;1714077;82;98936;-65
2022/01/18 08:58:28;;;;;;;37.75;10.82;;;;;;;-0.42;89.75;102422.37;1715542;82;25726;-65
2022/01/18 09:00:54;;;;;;;43.98;13.25;;;;;;;-0.37;89.77;102424.29;1711257;82;99015;-65
2022/01/18 09:03:20;;;;;;;53.80;16.52;;;;;;;-0.37;89.70;102419.02;1724961;82;26149;-65
2022/01/18 09:05:46;;;;;;;34.95;12.05;;;;;;;-0.28;89.77;102435.95;1716768;82;27452;-65
2022/01/18 09:08:13;;;;;;;45.60;12.88;;;;;;;-0.24;89.71;102447.94;1717457;82;98889;-64
2022/01/18 09:10:41;;;;;;;38.90;10.63;;;;;;;-0.24;89.63;102453.21;1716560;81;25782;-65
2022/01/18 09:13:07;;;;;;;45.55;13.20;;;;;;;-0.23;89.65;102460.69;1726843;81;98990;-65
2022/01/18 09:15:33;;;;;;;40.28;13.40;;;;;;;-0.28;89.55;102454.39;1722752;82;26329;-64
2022/01/18 09:17:59;;;;;;;41.80;10.13;;;;;;;-0.25;89.59;102468.55;1726980;82;28212;-66
2022/01/18 09:20:25;;;;;;;54.10;13.83;;;;;;;-0.23;89.56;102459.38;1729373;82;99010;-63
2022/01/18 09:22:52;;;;;;;61.83;15.93;;;;;;;-0.27;89.46;102471.98;1719273;82;26412;-64
2022/01/18 09:25:22;;;;;;;42.98;13.95;;;;;;;-0.19;89.59;102478.38;1703939;82;99243;-63
2022/01/18 09:27:49;;;;;;;44.65;12.18;;;;;;;-0.11;89.58;102488.73;1720002;81;25735;-70
2022/01/18 09:30:15;;;;;;;42.90;12.40;;;;;;;-0.08;89.46;102495.41;1713916;82;28351;-65
2022/01/18 09:32:43;;;;;;;34.23;10.45;;;;;;;-0.05;89.40;102508.25;1720835;81;99291;-64
2022/01/18 09:35:11;;;;;;;39.67;10.20;;;;;;;-0.05;89.32;102501.66;1723668;82;25727;-64
2022/01/18 09:37:37;;;;;;;42.38;11.60;;;;;;;-0.05;89.32;102492.86;1690279;82;98911;-64
2022/01/18 09:40:06;;;;;;;47.50;11.30;;;;;;;-0.09;89.25;102491.88;1666496;83;25826;-64
2022/01/18 09:42:40;;;;;;;40.20;10.30;;;;;;;-0.06;89.33;102500.30;1734803;82;27510;-64
2022/01/18 09:45:04;;;;;;;39.73;10.85;;;;;;;-0.03;89.32;102510.94;1724960;82;99054;-65
2022/01/18 09:47:30;;;;;;;29.47;9.40;;;;;;;-0.04;89.21;102504.77;1729457;82;25935;-64
2022/01/18 09:49:59;;;;;;;32.53;9.93;;;;;;;-0.02;89.16;102515.36;1722158;82;98923;-64
2022/01/18 09:52:25;;;;;;;33.65;11.05;;;;;;;-0.02;89.18;102506.13;1722390;80;26109;-64
2022/01/18 09:54:51;;;;;;;39.45;11.12;;;;;;;0.03;89.21;102510.19;1721803;81;99171;-65
2022/01/18 09:57:18;;;;;;;38.67;11.78;;;;;;;0.05;89.20;102512.02;1723509;81;25868;-64
2022/01/18 09:59:44;;;;;;;41.58;10.63;;;;;;;0.11;89.21;102513.94;1701404;82;25830;-65
2022/01/18 10:02:10;;;;;;;27.77;9.20;;;;;;;0.11;89.04;102516.16;1689261;82;98765;-65
2022/01/18 10:04:43;;;;;;;35.10;10.98;;;;;;;0.07;88.86;102514.28;1721136;81;25769;-64
2022/01/18 10:07:11;;;;;;;43.35;10.78;;;;;;;0.00;88.91;102513.66;1721766;81;98828;-63
2022/01/18 10:09:37;;;;;;;34.95;11.30;;;;;;;-0.01;88.96;102519.36;1722241;81;25784;-63
2022/01/18 10:12:13;;;;;;;43.23;11.38;;;;;;;-0.02;88.91;102529.44;1719355;82;26100;-64
2022/01/18 10:14:43;;;;;;;43.87;10.50;;;;;;;-0.03;88.89;102534.66;1719912;81;98965;-64
2022/01/18 10:17:11;;;;;;;37.58;10.13;;;;;;;-0.05;88.82;102550.85;1692759;82;25749;-65
2022/01/18 10:19:47;;;;;;;41.18;10.85;;;;;;;-0.06;88.81;102541.16;1724661;82;98953;-65
2022/01/18 10:22:16;;;;;;;40.73;11.38;;;;;;;-0.07;88.77;102548.17;1717536;81;26422;-64
2022/01/18 10:24:43;;;;;;;48.05;13.18;;;;;;;-0.08;88.77;102542.85;1715172;82;26066;-67
2022/01/18 10:27:10;;;;;;;49.23;12.35;;;;;;;-0.13;88.71;102533.48;1715061;81;98705;-66
2022/01/18 10:29:44;;;;;;;54.03;14.98;;;;;;;-0.14;88.73;102535.66;1720522;81;25771;-66
2022/01/18 10:32:20;;;;;;;55.73;14.98;;;;;;;-0.10;88.81;102528.31;1722903;81;99196;-64
2022/01/18 10:37:31;;;;;;;42.85;12.10;;;;;;;0.01;88.65;102537.83;1713185;81;99443;-64
2022/01/18 10:40:17;;;;;;;37.78;11.40;;;;;;;-0.01;88.70;102538.23;1717323;81;25739;-65
2022/01/18 10:42:49;;;;;;;30.43;9.23;;;;;;;0.05;88.70;102533.53;1720612;82;28267;-64
2022/01/18 10:45:30;;;;;;;36.70;10.43;;;;;;;0.08;88.63;102538.47;1659758;84;98507;-63
2022/01/18 10:48:13;;;;;;;26.80;10.58;;;;;;;0.08;88.62;102531.89;1640818;85;26538;-65
2022/01/18 10:50:44;;;;;;;36.23;9.95;;;;;;;0.10;88.70;102534.14;1704183;82;99539;-66
2022/01/18 10:53:21;;;;;;;46.20;13.18;;;;;;;0.07;88.59;102534.05;1722590;82;25914;-66
2022/01/18 10:55:50;;;;;;;43.35;11.33;;;;;;;0.05;88.50;102547.61;1705365;82;98753;-64
2022/01/18 10:58:21;;;;;;;34.88;10.78;;;;;;;0.06;88.58;102540.17;1719844;82;27347;-66
2022/01/18 11:00:49;;;;;;;33.45;10.85;;;;;;;0.11;88.62;102542.52;1722933;82;26223;-64
2022/01/18 11:03:14;;;;;;;51.08;13.55;;;;;;;0.14;88.50;102544.36;1695529;82;98588;-66
2022/01/18 11:05:43;;;;;;;36.38;9.60;;;;;;;0.14;88.38;102535.13;1725771;81;26092;-66
2022/01/18 11:08:12;;;;;;;42.55;10.90;;;;;;;0.17;88.39;102528.20;1723913;80;99314;-65
2022/01/18 11:10:41;;;;;;;46.37;12.47;;;;;;;0.13;88.25;102536.87;1710697;80;27395;-64
2022/01/18 11:13:22;;;;;;;34.78;13.22;;;;;;;0.16;88.30;102534.32;1702344;82;98883;-64
2022/01/18 11:15:52;;;;;;;42.98;14.15;;;;;;;0.20;88.29;102530.92;1699516;82;25763;-66
2022/01/18 11:18:18;;;;;;;39.08;14.43;;;;;;;0.22;88.27;102535.82;1703750;82;26500;-65
2022/01/18 11:20:48;;;;;;;44.20;12.05;;;;;;;0.28;88.36;102537.31;1699003;82;99136;-65
2022/01/18 11:23:15;;;;;;;32.28;10.78;;;;;;;0.40;88.30;102538.09;1699412;82;27881;-64
2022/01/18 11:25:42;;;;;;;44.30;15.10;;;;;;;0.41;88.30;102533.71;1702087;82;99055;-66
2022/01/18 11:28:10;;;;;;;40.83;15.18;;;;;;;0.49;88.38;102533.08;1688213;82;25683;-66
2022/01/18 11:30:42;;;;;;;57.70;17.40;;;;;;;0.59;88.34;102525.88;1693451;82;25730;-65
2022/01/18 11:33:13;;;;;;;55.48;15.30;;;;;;;0.62;88.21;102526.39;1691575;82;98669;-65
2022/01/18 11:35:59;;;;;;;45.98;15.78;;;;;;;0.69;88.25;102529.66;1698854;82;27458;-65
2022/01/18 11:38:51;;;;;;;39.25;15.13;;;;;;;0.79;88.41;102527.74;1700773;82;98831;-65
2022/01/18 11:41:25;;;;;;;;;;;;;;;0.85;88.31;102537.14;1683960;83;26483;-67
2022/01/18 11:43:54;;;;;;;49.33;16.02;;;;;;;0.87;88.23;102536.76;1677064;83;83848;-66
2022/01/18 11:46:38;;;;;;;39.83;13.48;;;;;;;0.87;88.22;102523.56;1697896;82;25784;-67
2022/01/18 11:49:09;;;;;;;51.17;13.80;;;;;;;0.90;88.05;102531.56;1697004;82;98947;-65
2022/01/18 11:51:57;;;;;;;35.28;11.97;;;;;;;0.94;88.05;102530.78;1697975;82;26573;-65
2022/01/18 11:54:42;;;;;;;46.33;14.25;;;;;;;0.95;87.97;102547.09;1674176;83;25874;-66
2022/01/18 11:57:27;;;;;;;41.50;13.95;;;;;;;0.93;87.88;102542.63;1697025;82;98633;-67
2022/01/18 12:00:13;;;;;;;51.28;14.90;;;;;;;0.92;87.93;102555.36;1706890;82;25754;-66
2022/01/18 12:02:42;;;;;;;44.25;13.72;;;;;;;0.95;87.97;102551.48;1698786;82;98691;-67
2022/01/18 12:05:17;;;;;;;32.83;11.60;;;;;;;1.00;87.90;102545.00;1698484;82;26674;-67
2022/01/18 12:07:48;;;;;;;38.10;11.15;;;;;;;0.96;87.85;102550.20;1697530;82;98848;-65
2022/01/18 12:10:37;;;;;;;38.28;11.63;;;;;;;0.83;87.49;102545.88;1679048;83;25829;-64
2022/01/18 12:13:05;;;;;;;29.85;10.43;;;;;;;0.75;87.54;102546.98;1690779;83;98882;-67
2022/01/18 12:15:43;;;;;;;54.23;13.15;;;;;;;0.66;87.46;102542.78;1692883;83;28239;-66
2022/01/18 12:18:16;;;;;;;40.10;12.28;;;;;;;0.57;87.40;102539.88;1686667;83;26562;-65
2022/01/18 12:20:48;;;;;;;42.93;14.45;;;;;;;0.48;87.29;102543.16;1634445;85;99205;-65
2022/01/18 12:23:21;;;;;;;42.58;15.05;;;;;;;0.47;87.41;102541.80;1689988;83;26577;-65
2022/01/18 12:26:02;;;;;;;37.08;11.93;;;;;;;0.52;87.54;102541.50;1675613;84;99155;-64
2022/01/18 12:34:38;;;;;;;32.13;11.35;;;;;;;0.67;87.35;102556.44;1629559;85;26258;-65
2022/01/18 12:37:17;;;;;;;38.63;11.50;;;;;;;0.63;87.24;102556.78;1681507;83;99102;-66
2022/01/18 12:40:08;;;;;;;39.83;12.40;;;;;;;0.69;87.23;102549.46;1691005;83;25821;-67
2022/01/18 12:45:22;;;;;;;41.77;15.20;;;;;;;0.68;86.99;102558.23;1661560;83;98562;-66
2022/01/18 12:48:02;;;;;;;39.88;11.40;;;;;;;0.62;86.94;102550.14;1670925;82;25873;-62
2022/01/18 12:50:36;;;;;;;46.85;12.75;;;;;;;0.59;86.85;102552.70;1686455;83;98833;-64